createdAt,value
2022-12-16T00:02:27.766Z,97158.53
2022-12-16T00:05:15.975Z,97164.56
2022-12-16T00:08:04.139Z,97161.88
2022-12-16T00:10:57.784Z,97161.78
2022-12-16T00:13:45.394Z,97160.00
2022-12-16T00:16:33.588Z,97160.72
2022-12-16T00:19:21.429Z,97159.81
2022-12-16T00:22:09.362Z,97157.09
2022-12-16T00:24:57.422Z,97152.72
2022-12-16T00:27:46.864Z,97155.22
2022-12-16T00:30:34.520Z,97148.25
2022-12-16T00:33:24.080Z,97149.91
2022-12-16T00:36:12.228Z,97155.00
2022-12-16T00:39:00.122Z,97148.03
2022-12-16T00:41:48.588Z,97146.25
2022-12-16T00:44:37.952Z,97140.13
2022-12-16T00:47:25.677Z,97139.19
2022-12-16T00:50:13.926Z,97141.69
2022-12-16T00:53:01.855Z,97134.81
2022-12-16T00:55:49.870Z,97138.97
2022-12-16T00:58:39.318Z,97134.63
2022-12-16T01:01:28.609Z,97135.31
2022-12-16T01:04:16.659Z,97145.63
2022-12-16T01:07:05.008Z,97143.97
2022-12-16T01:09:53.722Z,97155.31
2022-12-16T01:12:42.977Z,97154.38
2022-12-16T01:15:30.987Z,97152.63
2022-12-16T01:18:20.590Z,97156.97
2022-12-16T01:21:09.747Z,97161.25
2022-12-16T01:23:57.493Z,97152.63
2022-12-16T01:26:45.392Z,97154.38
2022-12-16T01:29:33.730Z,97157.94
2022-12-16T01:32:22.175Z,97153.53
2022-12-16T01:35:29.771Z,97162.91
2022-12-16T01:38:19.753Z,97158.53
2022-12-16T01:41:07.907Z,97165.41
2022-12-16T01:44:14.959Z,97175.81
2022-12-16T01:47:06.384Z,97173.31
2022-12-16T01:49:57.788Z,97172.38
2022-12-16T01:52:50.309Z,97168.94
2022-12-16T01:55:43.160Z,97167.19
2022-12-16T01:58:34.469Z,97169.78
2022-12-16T02:01:22.579Z,97179.13
2022-12-16T02:04:10.431Z,97178.28
2022-12-16T02:06:59.925Z,97179.97
2022-12-16T02:09:49.181Z,97174.78
2022-12-16T02:12:45.478Z,97183.38
2022-12-16T02:15:42.611Z,97181.63
2022-12-16T02:18:39.690Z,97188.50
2022-12-16T02:21:49.057Z,97186.00
2022-12-16T02:25:11.471Z,97184.13
2022-12-16T02:28:06.251Z,97184.97
2022-12-16T02:31:09.972Z,97178.09
2022-12-16T02:34:13.629Z,97191.09
2022-12-16T02:37:14.712Z,97193.69
2022-12-16T02:40:05.398Z,97186.72
2022-12-16T02:42:58.644Z,97190.19
2022-12-16T02:45:47.174Z,97196.09
2022-12-16T02:48:36.496Z,97204.63
2022-12-16T02:51:27.476Z,97200.38
2022-12-16T02:54:16.056Z,97201.41
2022-12-16T02:57:14.060Z,97202.13
2022-12-16T03:00:06.007Z,97207.25
2022-12-16T03:03:00.916Z,97207.25
2022-12-16T03:05:52.621Z,97201.09
2022-12-16T03:08:46.644Z,97197.66
2022-12-16T03:11:34.750Z,97193.28
2022-12-16T03:14:25.801Z,97194.13
2022-12-16T03:17:16.741Z,97195.88
2022-12-16T03:20:12.057Z,97200.16
2022-12-16T03:23:05.953Z,97199.31
2022-12-16T03:26:00.908Z,97201.81
2022-12-16T03:28:54.036Z,97196.63
2022-12-16T03:31:45.149Z,97205.38
2022-12-16T03:34:37.170Z,97213.88
2022-12-16T03:37:30.623Z,97213.88
2022-12-16T03:40:22.769Z,97218.38
2022-12-16T03:43:14.997Z,97230.44
2022-12-16T03:46:06.937Z,97245.22
2022-12-16T03:48:54.975Z,97251.06
2022-12-16T03:51:43.147Z,97254.41
2022-12-16T03:54:31.045Z,97251.81
2022-12-16T03:57:20.656Z,97244.81
2022-12-16T04:00:10.446Z,97245.66
2022-12-16T04:02:58.645Z,97245.56
2022-12-16T04:05:47.855Z,97224.84
2022-12-16T04:08:35.983Z,97227.44
2022-12-16T04:11:41.067Z,97231.78
2022-12-16T04:14:58.761Z,97228.38
2022-12-16T04:18:04.423Z,97231.78
2022-12-16T04:21:14.213Z,97235.25
2022-12-16T04:24:19.186Z,97239.59
2022-12-16T04:27:24.532Z,97242.19
2022-12-16T04:30:21.056Z,97244.00
2022-12-16T04:33:29.586Z,97245.66
2022-12-16T04:36:34.861Z,97256.06
2022-12-16T04:39:40.066Z,97264.69
2022-12-16T04:42:45.546Z,97268.22
2022-12-16T04:45:51.838Z,97268.13
2022-12-16T04:48:57.179Z,97269.06
2022-12-16T04:52:02.222Z,97275.94
2022-12-16T04:55:07.454Z,97277.59
2022-12-16T04:58:16.542Z,97282.78
2022-12-16T05:01:22.876Z,97288.00
2022-12-16T05:04:28.216Z,97288.00
2022-12-16T05:07:38.157Z,97296.56
2022-12-16T05:10:43.711Z,97300.91
2022-12-16T05:13:48.839Z,97300.91
2022-12-16T05:16:55.739Z,97308.63
2022-12-16T05:20:01.047Z,97302.59
2022-12-16T05:23:06.677Z,97302.59
2022-12-16T05:26:11.792Z,97299.91
2022-12-16T05:29:16.800Z,97298.22
2022-12-16T05:32:23.459Z,97309.56
2022-12-16T05:35:28.506Z,97315.72
2022-12-16T05:38:33.776Z,97313.13
2022-12-16T05:41:38.946Z,97324.44
2022-12-16T05:44:46.675Z,97319.22
2022-12-16T05:47:53.526Z,97328.72
2022-12-16T05:51:07.043Z,97333.00
2022-12-16T05:54:12.351Z,97339.97
2022-12-16T05:57:17.815Z,97334.66
2022-12-16T06:00:24.209Z,97338.19
2022-12-16T06:03:33.975Z,97348.59
2022-12-16T06:06:40.303Z,97343.41
2022-12-16T06:09:45.845Z,97345.06
2022-12-16T06:12:50.927Z,97342.47
2022-12-16T06:15:55.927Z,97348.59
2022-12-16T06:19:02.788Z,97356.41
2022-12-16T06:22:31.709Z,97369.44
2022-12-16T06:25:36.762Z,97368.59
2022-12-16T06:28:45.771Z,97379.75
2022-12-16T06:31:51.460Z,97384.84
2022-12-16T06:35:13.720Z,97387.44
2022-12-16T06:38:19.101Z,97392.66
2022-12-16T06:41:24.959Z,97400.47
2022-12-16T06:44:29.911Z,97401.31
2022-12-16T06:47:35.572Z,97404.81
2022-12-16T06:50:54.954Z,97407.34
2022-12-16T06:57:26.091Z,97419.44
2022-12-16T07:00:31.906Z,97422.94
2022-12-16T07:03:37.842Z,97435.06
2022-12-16T07:06:44.781Z,97433.38
2022-12-16T07:13:46.811Z,97436.72
2022-12-16T07:16:51.882Z,97438.38
2022-12-16T07:19:59.035Z,97445.28
2022-12-16T07:23:14.622Z,97457.34
2022-12-16T07:26:24.975Z,97459.84
2022-12-16T07:29:30.133Z,97465.91
2022-12-16T07:32:35.394Z,97473.59
2022-12-16T07:35:40.534Z,97466.63
2022-12-16T07:38:47.454Z,97479.63
2022-12-16T07:41:52.968Z,97478.81
2022-12-16T07:44:58.417Z,97490.03
2022-12-16T07:48:06.926Z,97493.41
2022-12-16T07:51:11.872Z,97498.59
2022-12-16T07:54:18.552Z,97510.66
2022-12-16T07:57:24.064Z,97509.00
2022-12-16T08:00:29.838Z,97526.09
2022-12-16T08:03:35.429Z,97526.94
2022-12-16T08:06:41.215Z,97540.78
2022-12-16T08:09:48.025Z,97532.97
2022-12-16T08:12:53.241Z,97545.28
2022-12-16T08:15:54.875Z,97550.28
2022-12-16T08:19:04.858Z,97552.69
2022-12-16T08:22:13.446Z,97560.50
2022-12-16T08:25:20.001Z,97558.63
2022-12-16T08:28:25.022Z,97555.09
2022-12-16T08:31:30.194Z,97566.13
2022-12-16T08:34:35.332Z,97570.31
2022-12-16T08:37:40.465Z,97561.56
2022-12-16T08:40:47.430Z,97567.50
2022-12-16T08:43:54.030Z,97572.63
2022-12-16T08:47:00.554Z,97583.88
2022-12-16T08:50:05.615Z,97587.22
2022-12-16T08:53:25.263Z,97581.81
2022-12-16T08:56:32.122Z,97581.63
2022-12-16T08:59:37.797Z,97589.97
2022-12-16T09:02:48.669Z,97591.22
2022-12-16T09:05:54.461Z,97599.78
2022-12-16T09:08:59.609Z,97601.16
2022-12-16T09:12:06.414Z,97597.41
2022-12-16T09:15:11.509Z,97607.72
2022-12-16T09:18:13.215Z,97611.84
2022-12-16T09:21:33.558Z,97621.13
2022-12-16T09:24:39.004Z,97620.28
2022-12-16T09:27:45.479Z,97625.19
2022-12-16T09:30:50.687Z,97624.69
2022-12-16T09:33:56.191Z,97624.38
2022-12-16T09:37:01.929Z,97628.25
2022-12-16T09:40:07.090Z,97627.31
2022-12-16T09:43:19.517Z,97631.31
2022-12-16T09:46:30.051Z,97635.28
2022-12-16T09:49:44.299Z,97639.13
2022-12-16T09:52:55.530Z,97642.19
2022-12-16T09:56:04.060Z,97642.69
2022-12-16T09:59:16.403Z,97640.63
2022-12-16T10:02:22.244Z,97641.06
2022-12-16T10:05:33.751Z,97638.84
2022-12-16T10:08:48.229Z,97643.75
2022-12-16T10:12:02.915Z,97642.94
2022-12-16T10:15:15.511Z,97647.94
2022-12-16T10:18:32.805Z,97648.44
2022-12-16T10:21:46.722Z,97652.50
2022-12-16T10:25:02.481Z,97645.22
2022-12-16T10:28:08.947Z,97652.09
2022-12-16T10:31:16.226Z,97657.09
2022-12-16T10:34:28.042Z,97661.41
2022-12-16T10:37:42.405Z,97661.63
2022-12-16T10:40:52.628Z,97663.19
2022-12-16T10:44:05.437Z,97664.03
2022-12-16T10:47:11.802Z,97662.84
2022-12-16T10:50:17.890Z,97665.06
2022-12-16T10:53:30.524Z,97667.84
2022-12-16T10:57:07.703Z,97671.47
2022-12-16T11:00:29.199Z,97675.03
2022-12-16T11:03:42.188Z,97668.53
2022-12-16T11:06:56.864Z,97667.94
2022-12-16T11:10:01.986Z,97668.66
2022-12-16T11:13:06.978Z,97672.00
2022-12-16T11:16:26.172Z,97676.47
2022-12-16T11:19:42.323Z,97670.63
2022-12-16T11:22:47.556Z,97676.53
2022-12-16T11:25:52.561Z,97680.31
2022-12-16T11:28:58.345Z,97680.72
2022-12-16T11:32:03.871Z,97687.00
2022-12-16T11:35:13.729Z,97686.72
2022-12-16T11:38:21.390Z,97693.72
2022-12-16T11:41:31.130Z,97693.81
2022-12-16T11:44:41.397Z,97695.69
2022-12-16T11:47:54.658Z,97690.47
2022-12-16T11:51:09.533Z,97687.97
2022-12-16T11:54:20.786Z,97695.19
2022-12-16T11:57:36.413Z,97698.72
2022-12-16T12:00:41.895Z,97698.34
2022-12-16T12:03:48.100Z,97709.75
2022-12-16T12:07:23.875Z,97705.53
2022-12-16T12:11:03.451Z,97710.47
2022-12-16T12:14:17.625Z,97716.88
2022-12-16T12:17:38.062Z,97723.31
2022-12-16T12:21:02.393Z,97729.19
2022-12-16T12:24:15.548Z,97736.38
2022-12-16T12:27:27.839Z,97735.47
2022-12-16T12:34:48.021Z,97744.41
2022-12-16T12:37:58.318Z,97742.13
2022-12-16T12:41:17.879Z,97750.19
2022-12-16T12:44:37.090Z,97758.13
2022-12-16T12:47:59.458Z,97756.34
2022-12-16T12:51:15.782Z,97762.31
2022-12-16T12:54:33.078Z,97765.63
2022-12-16T12:57:51.467Z,97764.91
2022-12-16T13:01:05.083Z,97765.00
2022-12-16T13:04:18.103Z,97763.00
2022-12-16T13:07:24.741Z,97765.63
2022-12-16T13:10:33.508Z,97770.13
2022-12-16T13:13:52.060Z,97776.06
2022-12-16T13:17:25.864Z,97789.66
2022-12-16T13:20:45.655Z,97792.47
2022-12-16T13:23:53.188Z,97797.72
2022-12-16T13:27:19.690Z,97800.97
2022-12-16T13:30:39.515Z,97797.28
2022-12-16T13:33:47.406Z,97799.16
2022-12-16T13:36:54.180Z,97805.88
2022-12-16T13:40:01.918Z,97809.41
2022-12-16T13:43:53.153Z,97810.56
2022-12-16T13:47:02.550Z,97822.06
2022-12-16T13:50:10.259Z,97827.47
2022-12-16T13:53:19.498Z,97827.38
2022-12-16T13:56:26.256Z,97838.44
2022-12-16T13:59:37.078Z,97841.06
2022-12-16T14:02:53.947Z,97847.22
2022-12-16T14:06:04.569Z,97860.59
2022-12-16T14:09:15.138Z,97858.72
2022-12-16T14:12:24.541Z,97869.16
2022-12-16T14:15:41.119Z,97866.75
2022-12-16T14:18:57.861Z,97871.44
2022-12-16T14:22:09.807Z,97884.47
2022-12-16T14:25:27.859Z,97883.75
2022-12-16T14:28:47.650Z,97889.19
2022-12-16T14:31:56.930Z,97891.03
2022-12-16T14:35:03.126Z,97902.53
2022-12-16T14:38:04.942Z,97896.56
2022-12-16T14:41:13.598Z,97900.94
2022-12-16T14:44:24.159Z,97915.03
2022-12-16T14:47:39.131Z,97917.94
2022-12-16T14:50:47.643Z,97925.06
2022-12-16T14:54:04.248Z,97916.47
2022-12-16T14:57:09.469Z,97923.53
2022-12-16T15:00:33.656Z,97930.66
2022-12-16T15:03:42.688Z,97925.63
2022-12-16T15:06:53.249Z,97928.53
2022-12-16T15:10:02.841Z,97935.41
2022-12-16T15:13:09.092Z,97934.69
2022-12-16T15:16:15.181Z,97929.94
2022-12-16T15:19:22.445Z,97942.34
2022-12-16T15:22:34.852Z,97936.50
2022-12-16T15:25:42.875Z,97947.03
2022-12-16T15:28:58.955Z,97948.03
2022-12-16T15:32:04.605Z,97952.63
2022-12-16T15:35:06.184Z,97964.06
2022-12-16T15:38:13.016Z,97972.81
2022-12-16T15:41:18.742Z,97973.97
2022-12-16T15:44:24.561Z,97981.97
2022-12-16T15:47:40.723Z,97978.78
2022-12-16T15:50:47.628Z,97980.56
2022-12-16T15:53:57.538Z,97992.94
2022-12-16T15:57:04.574Z,97994.81
2022-12-16T16:00:16.455Z,98012.50
2022-12-16T16:03:21.983Z,98017.63
2022-12-16T16:06:35.415Z,98027.22
2022-12-16T16:09:44.187Z,98036.06
2022-12-16T16:12:49.314Z,98038.84
2022-12-16T16:15:54.913Z,98037.28
2022-12-16T16:19:01.822Z,98042.50
2022-12-16T16:22:07.360Z,98043.41
2022-12-16T16:25:14.099Z,98039.31
2022-12-16T16:28:19.277Z,98046.38
2022-12-16T16:31:27.243Z,98050.94
2022-12-16T16:34:32.665Z,98058.84
2022-12-16T16:37:40.246Z,98056.34
2022-12-16T16:40:51.123Z,98063.31
2022-12-16T16:43:56.549Z,98060.78
2022-12-16T16:47:13.158Z,98062.75
2022-12-16T16:50:19.594Z,98066.25
2022-12-16T16:53:32.186Z,98069.81
2022-12-16T16:56:39.297Z,98073.53
2022-12-16T16:59:44.226Z,98065.13
2022-12-16T17:02:49.784Z,98074.06
2022-12-16T17:05:55.252Z,98077.59
2022-12-16T17:09:00.944Z,98083.16
2022-12-16T17:12:07.902Z,98085.16
2022-12-16T17:15:12.957Z,98091.06
2022-12-16T17:18:17.961Z,98084.53
2022-12-16T17:21:23.688Z,98095.03
2022-12-16T17:24:28.725Z,98098.63
2022-12-16T17:27:37.317Z,98105.88
2022-12-16T17:30:47.486Z,98109.47
2022-12-16T17:33:53.389Z,98126.19
2022-12-16T17:36:58.681Z,98128.22
2022-12-16T17:40:02.469Z,98123.75
2022-12-16T17:43:08.891Z,98123.19
2022-12-16T17:46:19.069Z,98128.56
2022-12-16T17:49:24.236Z,98136.63
2022-12-16T17:52:29.536Z,98139.47
2022-12-16T17:55:36.635Z,98136.28
2022-12-16T17:58:49.236Z,98146.84
2022-12-16T18:01:54.371Z,98160.97
2022-12-16T18:04:59.891Z,98169.78
2022-12-16T18:08:05.026Z,98176.91
2022-12-16T18:11:12.233Z,98172.94
2022-12-16T18:14:18.665Z,98188.88
2022-12-16T18:17:24.544Z,98182.00
2022-12-16T18:20:29.641Z,98184.00
2022-12-16T18:23:35.357Z,98193.81
2022-12-16T18:26:55.291Z,98196.59
2022-12-16T18:30:02.033Z,98201.16
2022-12-16T18:33:07.674Z,98208.38
2022-12-16T18:36:13.031Z,98211.13
2022-12-16T18:39:20.184Z,98220.91
2022-12-16T18:42:25.205Z,98224.69
2022-12-16T18:45:32.039Z,98227.50
2022-12-16T18:48:37.250Z,98234.69
2022-12-16T18:51:43.282Z,98233.94
2022-12-16T18:54:54.046Z,98246.31
2022-12-16T18:57:59.521Z,98239.66
2022-12-16T19:01:06.390Z,98251.97
2022-12-16T19:04:13.661Z,98257.63
2022-12-16T19:07:18.800Z,98257.94
2022-12-16T19:10:25.273Z,98262.28
2022-12-16T19:13:43.369Z,98258.06
2022-12-16T19:16:49.815Z,98272.88
2022-12-16T19:19:55.366Z,98267.09
2022-12-16T19:23:01.752Z,98273.25
2022-12-16T19:26:07.149Z,98273.47
2022-12-16T19:29:12.744Z,98270.19
2022-12-16T19:32:19.579Z,98272.13
2022-12-16T19:35:25.455Z,98285.19
2022-12-16T19:38:31.929Z,98287.88
2022-12-16T19:41:37.887Z,98289.84
2022-12-16T19:44:43.299Z,98296.00
2022-12-16T19:47:50.095Z,98295.19
2022-12-16T19:50:56.313Z,98306.41
2022-12-16T19:54:02.947Z,98302.97
2022-12-16T19:57:08.500Z,98305.72
2022-12-16T20:00:14.986Z,98307.53
2022-12-16T20:03:21.535Z,98313.59
2022-12-16T20:06:28.533Z,98323.13
2022-12-16T20:09:33.562Z,98334.50
2022-12-16T20:12:39.800Z,98336.19
2022-12-16T20:15:44.916Z,98342.28
2022-12-16T20:18:51.935Z,98345.03
2022-12-16T20:22:00.674Z,98350.22
2022-12-16T20:25:09.674Z,98358.78
2022-12-16T20:28:14.755Z,98361.38
2022-12-16T20:31:20.772Z,98366.72
2022-12-16T20:34:27.953Z,98368.41
2022-12-16T20:37:33.682Z,98369.16
2022-12-16T20:40:53.300Z,98374.44
2022-12-16T20:44:01.819Z,98394.31
2022-12-16T20:47:07.303Z,98386.59
2022-12-16T20:50:14.255Z,98392.69
2022-12-16T20:53:21.303Z,98397.09
2022-12-16T20:56:26.992Z,98398.78
2022-12-16T20:59:32.146Z,98396.19
2022-12-16T21:02:37.338Z,98402.25
2022-12-16T21:05:44.161Z,98404.84
2022-12-16T21:08:49.356Z,98412.56
2022-12-16T21:11:56.276Z,98419.38
2022-12-16T21:15:01.536Z,98422.03
2022-12-16T21:18:06.655Z,98424.63
2022-12-16T21:21:13.956Z,98430.69
2022-12-16T21:24:19.350Z,98436.69
2022-12-16T21:27:25.059Z,98445.34
2022-12-16T21:30:30.935Z,98447.94
2022-12-16T21:33:38.178Z,98450.47
2022-12-16T21:36:49.878Z,98447.88
2022-12-16T21:39:55.385Z,98456.59
2022-12-16T21:43:01.124Z,98464.38
2022-12-16T21:46:11.511Z,98468.72
2022-12-16T21:49:16.541Z,98466.19
2022-12-16T21:52:23.226Z,98476.56
2022-12-16T21:55:28.718Z,98481.84
2022-12-16T21:58:34.929Z,98485.34
2022-12-16T22:01:40.217Z,98481.06
2022-12-16T22:04:45.612Z,98489.81
2022-12-16T22:07:52.354Z,98494.25
2022-12-16T22:10:57.386Z,98502.94
2022-12-16T22:14:02.360Z,98503.91
2022-12-16T22:17:07.742Z,98505.72
2022-12-16T22:20:13.127Z,98508.53
2022-12-16T22:23:23.330Z,98521.59
2022-12-16T22:26:32.025Z,98526.91
2022-12-16T22:29:37.190Z,98526.91
2022-12-16T22:32:42.501Z,98528.75
2022-12-16T22:35:47.775Z,98537.47
2022-12-16T22:38:56.388Z,98535.69
2022-12-16T22:42:02.133Z,98538.34
2022-12-16T22:45:07.760Z,98539.22
2022-12-16T22:48:12.991Z,98540.94
2022-12-16T22:51:18.165Z,98538.41
2022-12-16T22:54:24.767Z,98544.59
2022-12-16T22:57:29.799Z,98538.59
2022-12-16T23:00:36.659Z,98540.31
2022-12-16T23:03:42.736Z,98543.78
2022-12-16T23:06:48.690Z,98549.00
2022-12-16T23:09:55.633Z,98554.28
2022-12-16T23:13:01.164Z,98556.00
2022-12-16T23:16:06.471Z,98566.41
2022-12-16T23:19:11.696Z,98563.84
2022-12-16T23:22:16.718Z,98565.59
2022-12-16T23:25:24.071Z,98562.13
2022-12-16T23:28:29.308Z,98559.59
2022-12-16T23:31:34.498Z,98566.56
2022-12-16T23:34:45.450Z,98569.16
2022-12-16T23:37:51.375Z,98576.09
2022-12-16T23:40:58.608Z,98571.94
2022-12-16T23:44:04.365Z,98568.44
2022-12-16T23:47:11.306Z,98581.47
2022-12-16T23:50:16.456Z,98582.44
2022-12-16T23:53:22.958Z,98590.28
2022-12-16T23:56:29.677Z,98586.06
2022-12-16T23:59:35.184Z,98578.41
